Time;durP1;ratioP1;P1;durP2;ratioP2;P2;SDS_P1;SDS_P2;PMS_P1;PMS_P2;Temp;Humidity;BMP_temperature;BMP_pressure;BME280_temperature;BME280_humidity;BME280_pressure;Samples;Min_cycle;Max_cycle;Signal;HPM_P1;HPM_P2
2022/08/29 00:01:49;;;;;;;10.13;6.35;;;;;;;;;;5049960;28;20041;-71
2022/08/29 00:04:54;;;;;;;16.48;6.32;;;;;;;;;;5050935;28;20048;-71
2022/08/29 00:08:00;;;;;;;13.93;6.80;;;;;;;;;;5053224;28;20036;-71
2022/08/29 00:11:05;;;;;;;12.50;6.43;;;;;;;;;;5053410;28;20044;-71
2022/08/29 00:14:09;;;;;;;11.50;7.50;;;;;;;;;;5053214;28;20057;-71
2022/08/29 00:17:14;;;;;;;15.95;7.97;;;;;;;;;;5053456;28;20040;-71
2022/08/29 00:20:20;;;;;;;10.77;7.30;;;;;;;;;;5053284;28;20409;-71
2022/08/29 00:23:25;;;;;;;11.20;6.68;;;;;;;;;;5053398;28;20409;-71
2022/08/29 00:26:29;;;;;;;13.20;7.20;;;;;;;;;;5053140;28;20048;-71
2022/08/29 00:29:34;;;;;;;14.27;7.93;;;;;;;;;;5052284;28;20397;-71
2022/08/29 00:32:39;;;;;;;15.65;7.47;;;;;;;;;;5052782;28;20050;-71
2022/08/29 00:35:44;;;;;;;17.25;7.70;;;;;;;;;;5052546;28;20045;-71
2022/08/29 00:38:48;;;;;;;12.40;7.20;;;;;;;;;;5053472;28;20037;-71
2022/08/29 00:41:53;;;;;;;16.85;7.38;;;;;;;;;;5053027;28;20140;-71
2022/08/29 00:44:57;;;;;;;19.35;6.75;;;;;;;;;;5052966;28;20056;-71
2022/08/29 00:48:05;;;;;;;12.10;7.55;;;;;;;;;;5053227;28;20059;-71
2022/08/29 00:51:16;;;;;;;12.68;7.03;;;;;;;;;;5040585;28;20377;-70
2022/08/29 00:54:20;;;;;;;;;;;;;;;;;;5053225;28;20115;-71
2022/08/29 00:57:26;;;;;;;12.23;7.38;;;;;;;;;;5053179;28;19920;-71
2022/08/29 01:00:30;;;;;;;12.43;7.70;;;;;;;;;;5052493;28;20041;-71
2022/08/29 01:03:35;;;;;;;13.88;8.02;;;;;;;;;;5052873;28;20041;-71
2022/08/29 01:06:40;;;;;;;13.07;7.80;;;;;;;;;;5051922;28;20044;-71
2022/08/29 01:09:45;;;;;;;12.48;7.65;;;;;;;;;;5052674;28;20501;-71
2022/08/29 01:12:50;;;;;;;14.27;8.02;;;;;;;;;;5052535;28;20033;-71
2022/08/29 01:15:55;;;;;;;15.48;8.05;;;;;;;;;;5052137;28;20047;-71
2022/08/29 01:19:01;;;;;;;15.23;7.95;;;;;;;;;;5051657;28;20488;-71
2022/08/29 01:22:28;;;;;;;17.73;7.40;;;;;;;;;;5052369;28;20046;-71
2022/08/29 01:25:34;;;;;;;18.35;7.60;;;;;;;;;;5052114;28;20045;-71
2022/08/29 01:28:41;;;;;;;20.15;7.68;;;;;;;;;;5052334;28;20040;-71
2022/08/29 01:31:48;;;;;;;15.18;7.57;;;;;;;;;;5052008;28;20047;-71
2022/08/29 01:34:52;;;;;;;14.77;7.93;;;;;;;;;;5052293;28;20050;-71
2022/08/29 01:37:57;;;;;;;11.93;7.78;;;;;;;;;;5051246;28;20037;-71
2022/08/29 01:41:01;;;;;;;12.82;7.63;;;;;;;;;;5051870;28;20045;-71
2022/08/29 01:44:11;;;;;;;13.80;7.88;;;;;;;;;;5051910;28;20037;-71
2022/08/29 01:47:15;;;;;;;12.48;7.70;;;;;;;;;;5051868;28;20037;-71
2022/08/29 01:50:21;;;;;;;14.43;7.55;;;;;;;;;;5050897;28;20072;-71
2022/08/29 01:53:25;;;;;;;9.18;7.28;;;;;;;;;;5051855;28;20033;-71
2022/08/29 01:56:31;;;;;;;17.50;8.02;;;;;;;;;;5051752;28;20366;-71
2022/08/29 01:59:35;;;;;;;11.93;7.20;;;;;;;;;;5052029;28;20049;-71
2022/08/29 02:02:39;;;;;;;12.50;7.20;;;;;;;;;;5051751;28;20037;-71
2022/08/29 02:05:46;;;;;;;14.50;7.35;;;;;;;;;;5051303;28;20045;-70
2022/08/29 02:08:50;;;;;;;11.35;7.53;;;;;;;;;;5051720;28;20041;-71
2022/08/29 02:11:56;;;;;;;13.05;7.00;;;;;;;;;;5051365;28;20037;-70
2022/08/29 02:15:01;;;;;;;13.05;7.25;;;;;;;;;;5051739;28;20037;-71
2022/08/29 02:18:05;;;;;;;12.57;7.80;;;;;;;;;;5051469;28;20046;-71
2022/08/29 02:21:11;;;;;;;10.48;7.72;;;;;;;;;;5051545;28;20390;-71
2022/08/29 02:24:16;;;;;;;10.63;8.05;;;;;;;;;;5050149;28;20044;-71
2022/08/29 02:27:20;;;;;;;11.95;8.02;;;;;;;;;;5050929;28;20037;-71
2022/08/29 02:30:25;;;;;;;15.38;8.13;;;;;;;;;;5050541;28;20037;-71
2022/08/29 02:33:30;;;;;;;16.42;7.68;;;;;;;;;;5051223;28;20495;-71
2022/08/29 02:36:35;;;;;;;11.80;7.45;;;;;;;;;;5050523;28;20050;-71
2022/08/29 02:39:39;;;;;;;11.35;7.20;;;;;;;;;;5050855;28;20053;-71
2022/08/29 02:42:43;;;;;;;12.98;6.40;;;;;;;;;;5050292;28;20436;-71
2022/08/29 02:45:48;;;;;;;12.02;6.63;;;;;;;;;;5050912;28;20071;-71
2022/08/29 02:48:52;;;;;;;12.65;7.15;;;;;;;;;;5050976;28;20040;-71
2022/08/29 02:51:57;;;;;;;11.45;7.15;;;;;;;;;;5051070;28;20500;-71
2022/08/29 02:55:01;;;;;;;11.00;7.65;;;;;;;;;;5051295;28;20041;-71
2022/08/29 02:58:06;;;;;;;11.52;6.80;;;;;;;;;;5038803;28;20045;-71
2022/08/29 03:01:11;;;;;;;13.63;7.40;;;;;;;;;;5050638;28;20037;-71
2022/08/29 03:04:15;;;;;;;12.07;7.80;;;;;;;;;;5050767;28;20037;-71
2022/08/29 03:07:19;;;;;;;12.90;7.25;;;;;;;;;;5050823;28;20048;-71
2022/08/29 03:10:24;;;;;;;12.60;7.43;;;;;;;;;;5050962;28;20519;-71
2022/08/29 03:13:29;;;;;;;13.80;8.18;;;;;;;;;;5038469;28;20049;-71
2022/08/29 03:16:34;;;;;;;13.60;7.65;;;;;;;;;;5050669;28;20040;-71
2022/08/29 03:19:38;;;;;;;12.95;7.43;;;;;;;;;;5050502;28;20040;-71
2022/08/29 03:22:43;;;;;;;10.40;7.53;;;;;;;;;;5050616;28;20040;-71
2022/08/29 03:25:48;;;;;;;15.00;7.55;;;;;;;;;;5050361;28;20045;-71
2022/08/29 03:28:53;;;;;;;13.30;8.13;;;;;;;;;;5049699;28;20037;-71
2022/08/29 03:31:57;;;;;;;13.75;8.50;;;;;;;;;;5050330;28;20044;-71
2022/08/29 03:35:01;;;;;;;13.23;8.05;;;;;;;;;;5049727;28;20044;-71
2022/08/29 03:38:06;;;;;;;12.73;7.40;;;;;;;;;;5050488;28;20047;-71
2022/08/29 03:41:11;;;;;;;12.68;7.78;;;;;;;;;;5014705;28;20045;-71
2022/08/29 03:44:15;;;;;;;12.65;7.53;;;;;;;;;;5014443;28;20041;-69
2022/08/29 03:47:19;;;;;;;11.75;7.20;;;;;;;;;;5014390;28;20033;-70
2022/08/29 03:50:24;;;;;;;12.63;7.10;;;;;;;;;;5013443;28;20030;-70
2022/08/29 03:53:29;;;;;;;11.80;7.25;;;;;;;;;;5013597;28;20037;-70
2022/08/29 03:56:33;;;;;;;16.60;7.50;;;;;;;;;;5014556;28;20045;-70
2022/08/29 03:59:38;;;;;;;12.07;7.82;;;;;;;;;;5002096;28;20046;-70
2022/08/29 04:02:44;;;;;;;11.82;7.60;;;;;;;;;;5014419;28;20046;-70
2022/08/29 04:05:48;;;;;;;8.48;7.07;;;;;;;;;;5013897;28;20050;-70
2022/08/29 04:08:53;;;;;;;19.20;7.35;;;;;;;;;;5014113;28;20474;-70
2022/08/29 04:11:58;;;;;;;12.18;7.72;;;;;;;;;;5014291;28;20042;-70
2022/08/29 04:15:04;;;;;;;13.15;8.15;;;;;;;;;;5014308;28;20038;-70
2022/08/29 04:18:09;;;;;;;12.95;7.65;;;;;;;;;;5014127;28;20051;-70
2022/08/29 04:21:14;;;;;;;14.35;7.60;;;;;;;;;;5013686;28;20406;-70
2022/08/29 04:24:19;;;;;;;27.08;7.70;;;;;;;;;;5014054;28;20038;-70
2022/08/29 04:27:23;;;;;;;8.98;7.18;;;;;;;;;;5013938;28;20038;-70
2022/08/29 04:30:28;;;;;;;23.25;8.07;;;;;;;;;;5013430;28;20034;-71
2022/08/29 04:33:32;;;;;;;14.77;7.00;;;;;;;;;;5013478;28;20492;-71
2022/08/29 04:36:39;;;;;;;11.27;7.20;;;;;;;;;;5012610;28;20037;-70
2022/08/29 04:39:43;;;;;;;12.27;6.85;;;;;;;;;;5029270;28;20041;-70
2022/08/29 04:42:47;;;;;;;16.33;7.22;;;;;;;;;;5053518;28;20037;-71
2022/08/29 04:45:55;;;;;;;14.20;7.07;;;;;;;;;;5053077;28;20485;-71
2022/08/29 04:49:00;;;;;;;14.68;10.57;;;;;;;;;;5053175;28;20025;-70
2022/08/29 04:52:04;;;;;;;18.17;10.50;;;;;;;;;;5053189;28;20040;-71
2022/08/29 04:55:10;;;;;;;13.35;8.30;;;;;;;;;;5053185;28;20392;-71
2022/08/29 04:58:15;;;;;;;16.15;9.70;;;;;;;;;;5040783;28;20048;-71
2022/08/29 05:01:23;;;;;;;17.20;8.88;;;;;;;;;;5053223;28;20408;-71
2022/08/29 05:04:27;;;;;;;16.13;8.50;;;;;;;;;;5053503;28;20420;-70
2022/08/29 05:07:32;;;;;;;18.77;9.40;;;;;;;;;;5052710;28;20037;-70
2022/08/29 05:10:36;;;;;;;16.42;8.85;;;;;;;;;;5052688;28;20029;-71
2022/08/29 05:13:41;;;;;;;18.60;8.48;;;;;;;;;;5053005;28;20039;-70
2022/08/29 05:16:47;;;;;;;18.13;7.47;;;;;;;;;;5052829;28;20048;-75
2022/08/29 05:19:52;;;;;;;11.48;7.15;;;;;;;;;;5052038;28;20064;-74
2022/08/29 05:22:57;;;;;;;12.13;7.32;;;;;;;;;;5052657;28;20430;-75
2022/08/29 05:26:03;;;;;;;17.88;7.55;;;;;;;;;;5052687;28;20053;-76
2022/08/29 05:29:09;;;;;;;11.13;6.70;;;;;;;;;;5052943;28;20041;-75
2022/08/29 05:32:14;;;;;;;13.90;5.72;;;;;;;;;;5052434;28;20516;-76
2022/08/29 05:35:18;;;;;;;11.18;5.47;;;;;;;;;;5052532;28;20037;-75
2022/08/29 05:38:22;;;;;;;9.98;5.28;;;;;;;;;;5052537;28;20393;-75
2022/08/29 05:41:27;;;;;;;15.65;5.32;;;;;;;;;;5052773;28;20044;-75
2022/08/29 05:44:32;;;;;;;13.55;6.68;;;;;;;;;;5052432;28;20040;-74
2022/08/29 05:47:37;;;;;;;11.55;5.82;;;;;;;;;;5051404;28;20045;-74
2022/08/29 05:50:42;;;;;;;16.42;6.75;;;;;;;;;;5052489;28;20048;-75
2022/08/29 05:53:48;;;;;;;16.10;6.57;;;;;;;;;;5051962;28;20044;-75
2022/08/29 05:56:52;;;;;;;11.18;6.85;;;;;;;;;;5052549;28;20048;-75
2022/08/29 05:59:56;;;;;;;10.95;6.43;;;;;;;;;;5040380;28;20536;-76
2022/08/29 06:03:01;;;;;;;14.20;6.72;;;;;;;;;;5050346;28;20044;-76
2022/08/29 06:06:05;;;;;;;11.80;6.03;;;;;;;;;;5051411;28;20048;-77
2022/08/29 06:09:11;;;;;;;16.88;5.65;;;;;;;;;;5051805;28;20036;-74
2022/08/29 06:12:17;;;;;;;12.88;5.80;;;;;;;;;;5040131;28;20036;-76
2022/08/29 06:15:21;;;;;;;10.82;4.90;;;;;;;;;;5052250;28;20052;-74
2022/08/29 06:18:26;;;;;;;10.73;3.50;;;;;;;;;;5052378;28;20057;-73
2022/08/29 06:21:30;;;;;;;8.70;3.45;;;;;;;;;;5051723;28;20041;-72
2022/08/29 06:24:34;;;;;;;9.82;4.10;;;;;;;;;;5050950;28;20041;-73
2022/08/29 06:27:39;;;;;;;10.73;3.63;;;;;;;;;;5051061;28;20037;-73
2022/08/29 06:30:43;;;;;;;10.82;4.30;;;;;;;;;;5051100;28;20048;-73
2022/08/29 06:33:50;;;;;;;9.52;4.25;;;;;;;;;;5051531;28;20033;-71
2022/08/29 06:36:54;;;;;;;10.48;4.60;;;;;;;;;;5050937;28;20045;-71
2022/08/29 06:39:58;;;;;;;5.97;4.18;;;;;;;;;;5049992;28;20041;-72
2022/08/29 06:43:03;;;;;;;8.85;3.90;;;;;;;;;;5051010;28;20033;-72
2022/08/29 06:46:07;;;;;;;10.20;4.40;;;;;;;;;;5050156;28;20045;-72
2022/08/29 06:49:13;;;;;;;6.82;4.15;;;;;;;;;;5050875;28;20036;-72
2022/08/29 06:52:17;;;;;;;11.43;4.40;;;;;;;;;;5051026;28;20037;-71
2022/08/29 06:55:21;;;;;;;7.00;4.18;;;;;;;;;;5051422;28;20033;-72
2022/08/29 06:58:26;;;;;;;7.97;4.28;;;;;;;;;;5051415;28;20049;-70
2022/08/29 07:01:30;;;;;;;8.73;4.35;;;;;;;;;;5051428;28;20040;-71
2022/08/29 07:04:34;;;;;;;7.00;4.38;;;;;;;;;;5051583;28;20049;-73
2022/08/29 07:07:40;;;;;;;5.93;4.03;;;;;;;;;;5051396;28;20045;-71
2022/08/29 07:10:45;;;;;;;8.88;4.50;;;;;;;;;;5051288;28;20473;-71
2022/08/29 07:13:49;;;;;;;7.70;3.85;;;;;;;;;;5053889;28;20041;-73
2022/08/29 07:16:55;;;;;;;7.30;3.55;;;;;;;;;;5055153;28;20049;-73
2022/08/29 07:19:59;;;;;;;10.43;4.22;;;;;;;;;;5054798;28;20033;-71
2022/08/29 07:23:05;;;;;;;11.05;3.70;;;;;;;;;;5054694;28;20052;-74
2022/08/29 07:26:15;;;;;;;10.25;3.65;;;;;;;;;;5055612;28;20060;-72
2022/08/29 07:29:21;;;;;;;4.78;3.13;;;;;;;;;;5055294;28;20496;-73
2022/08/29 07:32:26;;;;;;;7.65;3.45;;;;;;;;;;5055479;28;20037;-73
2022/08/29 07:35:32;;;;;;;7.07;3.00;;;;;;;;;;5055635;28;20033;-74
2022/08/29 07:38:37;;;;;;;4.55;2.70;;;;;;;;;;5054536;28;20037;-77
2022/08/29 07:41:42;;;;;;;9.85;3.15;;;;;;;;;;5055628;28;20347;-75
2022/08/29 07:44:46;;;;;;;9.07;2.95;;;;;;;;;;5054794;28;20037;-71
2022/08/29 07:47:51;;;;;;;7.65;2.55;;;;;;;;;;5053829;28;20033;-73
2022/08/29 07:50:56;;;;;;;8.05;3.20;;;;;;;;;;5055361;28;20382;-72
2022/08/29 07:54:00;;;;;;;5.30;2.60;;;;;;;;;;5053656;28;20041;-72
2022/08/29 07:57:06;;;;;;;4.93;2.20;;;;;;;;;;5054461;28;20041;-72
2022/08/29 08:00:11;;;;;;;7.00;2.65;;;;;;;;;;5054454;28;20033;-71
2022/08/29 08:03:22;;;;;;;3.45;2.13;;;;;;;;;;5054087;28;20033;-72
2022/08/29 08:06:27;;;;;;;3.97;2.40;;;;;;;;;;5053169;28;20052;-72
2022/08/29 08:09:31;;;;;;;8.90;2.15;;;;;;;;;;5054733;28;20132;-74
2022/08/29 08:12:36;;;;;;;9.05;2.67;;;;;;;;;;5055103;28;20036;-73
2022/08/29 08:15:40;;;;;;;6.05;2.58;;;;;;;;;;5054040;28;20390;-72
2022/08/29 08:18:45;;;;;;;23.17;4.68;;;;;;;;;;5053755;28;20036;-73
2022/08/29 08:21:50;;;;;;;4.55;2.88;;;;;;;;;;5053497;28;20029;-73
2022/08/29 08:24:54;;;;;;;7.25;3.10;;;;;;;;;;5052900;28;20045;-72
2022/08/29 08:27:59;;;;;;;6.80;2.85;;;;;;;;;;5053986;28;20049;-71
2022/08/29 08:31:05;;;;;;;5.60;2.65;;;;;;;;;;5053053;28;20041;-71
2022/08/29 08:34:09;;;;;;;7.30;3.33;;;;;;;;;;5052868;28;20049;-72
2022/08/29 08:37:13;;;;;;;5.68;3.13;;;;;;;;;;5052910;28;20037;-73
2022/08/29 08:40:22;;;;;;;6.80;3.30;;;;;;;;;;5051703;28;20041;-74
2022/08/29 08:43:34;;;;;;;3.95;2.83;;;;;;;;;;5051258;28;20041;-72
2022/08/29 08:46:41;;;;;;;6.68;2.95;;;;;;;;;;5051584;28;20119;-71
2022/08/29 08:49:49;;;;;;;7.75;3.55;;;;;;;;;;5051555;28;20033;-71
2022/08/29 08:52:57;;;;;;;6.63;3.47;;;;;;;;;;5051580;28;20041;-74
2022/08/29 08:56:04;;;;;;;9.02;2.97;;;;;;;;;;5053034;28;20033;-71
2022/08/29 08:59:38;;;;;;;7.75;3.60;;;;;;;;;;5052738;28;20378;-72
2022/08/29 09:02:54;;;;;;;7.63;3.25;;;;;;;;;;5051855;28;20037;-71
2022/08/29 09:06:06;;;;;;;8.07;3.38;;;;;;;;;;5052858;28;20049;-72
2022/08/29 09:09:25;;;;;;;4.28;2.92;;;;;;;;;;5051907;28;20036;-72
2022/08/29 09:12:43;;;;;;;8.88;3.97;;;;;;;;;;5052685;28;20044;-73
2022/08/29 09:15:50;;;;;;;8.80;3.22;;;;;;;;;;5052590;28;20033;-73
2022/08/29 09:18:55;;;;;;;12.13;3.63;;;;;;;;;;5052927;28;20374;-72
2022/08/29 09:22:08;;;;;;;8.88;3.78;;;;;;;;;;5052686;28;20502;-72
2022/08/29 09:25:13;;;;;;;9.10;3.67;;;;;;;;;;5051163;28;20489;-74
2022/08/29 09:28:17;;;;;;;7.60;3.58;;;;;;;;;;5052159;28;20032;-74
2022/08/29 09:31:23;;;;;;;9.18;3.78;;;;;;;;;;5053540;28;20378;-74
2022/08/29 09:34:36;;;;;;;13.68;4.63;;;;;;;;;;5052649;28;20033;-73
2022/08/29 09:37:41;;;;;;;7.50;4.10;;;;;;;;;;5052745;28;20055;-75
2022/08/29 09:40:45;;;;;;;12.85;3.70;;;;;;;;;;5052997;28;20382;-75
2022/08/29 09:43:56;;;;;;;7.03;3.78;;;;;;;;;;5050554;28;20056;-75
2022/08/29 09:47:11;;;;;;;5.07;3.40;;;;;;;;;;5050857;28;20378;-75
2022/08/29 09:50:15;;;;;;;5.65;3.40;;;;;;;;;;5052095;28;20040;-74
2022/08/29 09:53:22;;;;;;;4.95;4.40;;;;;;;;;;5052089;28;20052;-75
2022/08/29 09:56:27;;;;;;;7.95;4.10;;;;;;;;;;5051099;28;20045;-75
2022/08/29 09:59:36;;;;;;;6.22;4.68;;;;;;;;;;5052685;28;20041;-75
2022/08/29 10:02:43;;;;;;;10.52;5.20;;;;;;;;;;5052125;28;20037;-74
2022/08/29 10:05:49;;;;;;;7.45;4.50;;;;;;;;;;5051257;28;20435;-75
2022/08/29 10:09:02;;;;;;;6.85;4.38;;;;;;;;;;5050314;28;20033;-76
2022/08/29 10:12:12;;;;;;;8.95;4.60;;;;;;;;;;5051962;28;20037;-75
2022/08/29 10:15:27;;;;;;;6.72;4.30;;;;;;;;;;5053069;28;20472;-75
2022/08/29 10:18:32;;;;;;;7.85;4.40;;;;;;;;;;5050704;28;20033;-75
2022/08/29 10:21:45;;;;;;;10.23;5.07;;;;;;;;;;5051240;28;20041;-75
2022/08/29 10:25:10;;;;;;;7.18;4.25;;;;;;;;;;5049891;28;20040;-75
2022/08/29 10:28:15;;;;;;;8.52;5.07;;;;;;;;;;5049772;28;20393;-75
2022/08/29 10:31:26;;;;;;;5.53;4.28;;;;;;;;;;5048707;28;20033;-75
2022/08/29 10:34:52;;;;;;;6.72;5.28;;;;;;;;;;5051598;28;20037;-75
2022/08/29 10:38:00;;;;;;;10.43;6.60;;;;;;;;;;5049637;28;20041;-75
2022/08/29 10:41:24;;;;;;;9.48;5.05;;;;;;;;;;5049367;28;20053;-76
2022/08/29 10:45:08;;;;;;;10.02;4.30;;;;;;;;;;5051446;28;20477;-76
2022/08/29 10:48:20;;;;;;;9.93;4.85;;;;;;;;;;5048534;28;20052;-76
2022/08/29 10:51:27;;;;;;;8.57;4.80;;;;;;;;;;5049346;28;20048;-74
2022/08/29 10:54:49;;;;;;;8.95;4.68;;;;;;;;;;5050616;28;20044;-75
2022/08/29 10:58:08;;;;;;;5.75;4.20;;;;;;;;;;5050996;28;20041;-75
2022/08/29 11:01:17;;;;;;;6.15;4.25;;;;;;;;;;5049452;28;20045;-76
2022/08/29 11:04:33;;;;;;;9.02;4.20;;;;;;;;;;5049112;28;20033;-74
2022/08/29 11:07:41;;;;;;;6.30;4.05;;;;;;;;;;5049372;28;20052;-74
2022/08/29 11:10:48;;;;;;;8.57;4.53;;;;;;;;;;5049486;28;20041;-75
2022/08/29 11:13:55;;;;;;;6.22;3.78;;;;;;;;;;5050085;28;20041;-75
2022/08/29 11:17:03;;;;;;;7.30;3.80;;;;;;;;;;5052487;28;20041;-75
2022/08/29 11:20:16;;;;;;;8.43;3.97;;;;;;;;;;5051122;28;20033;-76
2022/08/29 11:23:29;;;;;;;7.75;4.10;;;;;;;;;;5051620;28;20041;-75
2022/08/29 11:26:43;;;;;;;6.43;4.10;;;;;;;;;;5051788;28;20185;-75
2022/08/29 11:29:53;;;;;;;10.90;5.00;;;;;;;;;;5050946;28;20029;-75
2022/08/29 11:33:06;;;;;;;7.80;4.47;;;;;;;;;;5052062;28;20408;-76
2022/08/29 11:36:15;;;;;;;7.95;5.13;;;;;;;;;;5051687;28;20037;-75
2022/08/29 11:39:22;;;;;;;9.82;4.72;;;;;;;;;;5050633;28;20045;-76
2022/08/29 11:42:32;;;;;;;5.50;4.68;;;;;;;;;;5050778;28;20484;-75
2022/08/29 11:45:40;;;;;;;9.90;5.07;;;;;;;;;;5050878;28;20048;-75
2022/08/29 11:48:46;;;;;;;6.28;4.03;;;;;;;;;;5050785;28;20350;-75
2022/08/29 11:52:11;;;;;;;7.28;4.15;;;;;;;;;;5050997;28;20477;-75
2022/08/29 11:55:30;;;;;;;10.63;4.32;;;;;;;;;;5057056;28;20040;-75
2022/08/29 11:58:35;;;;;;;7.55;4.13;;;;;;;;;;5050466;28;20044;-75
2022/08/29 12:01:54;;;;;;;9.63;4.28;;;;;;;;;;5053605;28;20037;-75
2022/08/29 12:05:00;;;;;;;8.55;4.80;;;;;;;;;;5054076;28;20041;-75
2022/08/29 12:08:16;;;;;;;10.68;4.60;;;;;;;;;;5054399;28;20048;-75
2022/08/29 12:11:20;;;;;;;8.00;4.45;;;;;;;;;;5054301;28;20094;-75
2022/08/29 12:14:29;;;;;;;8.70;4.13;;;;;;;;;;5054423;28;20381;-76
2022/08/29 12:17:33;;;;;;;4.57;3.55;;;;;;;;;;5053539;28;20032;-76
2022/08/29 12:20:44;;;;;;;6.97;4.15;;;;;;;;;;5053769;28;20041;-75
2022/08/29 12:23:48;;;;;;;5.38;3.97;;;;;;;;;;5053040;28;20382;-74
2022/08/29 12:26:53;;;;;;;10.55;4.60;;;;;;;;;;5051959;28;20049;-73
2022/08/29 12:29:57;;;;;;;8.23;4.43;;;;;;;;;;5052838;28;20045;-75
2022/08/29 12:33:21;;;;;;;5.88;4.00;;;;;;;;;;5053133;28;20484;-74
2022/08/29 12:36:32;;;;;;;11.20;4.05;;;;;;;;;;5052316;28;20037;-74
2022/08/29 12:39:51;;;;;;;11.30;4.75;;;;;;;;;;5052636;28;20059;-75
2022/08/29 12:43:15;;;;;;;13.18;4.65;;;;;;;;;;5052967;28;20044;-74
2022/08/29 12:46:30;;;;;;;8.07;4.63;;;;;;;;;;5052023;28;20053;-71
2022/08/29 12:49:49;;;;;;;11.77;4.85;;;;;;;;;;5053063;28;20041;-74
2022/08/29 12:52:59;;;;;;;10.60;5.00;;;;;;;;;;5053824;28;20045;-82
2022/08/29 12:56:03;;;;;;;6.45;4.53;;;;;;;;;;5053905;28;20120;-76
2022/08/29 12:59:15;;;;;;;8.32;3.75;;;;;;;;;;5054317;28;20045;-77
2022/08/29 13:02:24;;;;;;;15.35;4.70;;;;;;;;;;5054433;28;20033;-75
2022/08/29 13:05:30;;;;;;;8.27;3.88;;;;;;;;;;5054305;28;20385;-76
2022/08/29 13:08:38;;;;;;;10.50;4.95;;;;;;;;;;5053731;28;20041;-74
2022/08/29 13:11:42;;;;;;;7.70;3.72;;;;;;;;;;5054392;28;20045;-76
2022/08/29 13:14:46;;;;;;;6.53;3.88;;;;;;;;;;5052104;28;20045;-76
2022/08/29 13:17:51;;;;;;;6.82;4.03;;;;;;;;;;5053043;28;20488;-75
2022/08/29 13:21:01;;;;;;;9.57;4.15;;;;;;;;;;5052071;28;20041;-76
2022/08/29 13:24:12;;;;;;;5.05;3.88;;;;;;;;;;5053688;28;20037;-75
2022/08/29 13:27:19;;;;;;;6.90;4.63;;;;;;;;;;5053609;28;20049;-76
2022/08/29 13:30:24;;;;;;;6.40;4.22;;;;;;;;;;5054366;28;20037;-75
2022/08/29 13:33:29;;;;;;;5.93;3.88;;;;;;;;;;5054005;28;20033;-77
2022/08/29 13:36:40;;;;;;;4.75;3.40;;;;;;;;;;5052806;28;20048;-75
2022/08/29 13:39:45;;;;;;;10.07;3.75;;;;;;;;;;5052916;28;20056;-76
2022/08/29 13:42:50;;;;;;;6.00;3.33;;;;;;;;;;5052575;28;20037;-76
2022/08/29 13:46:24;;;;;;;7.80;3.55;;;;;;;;;;5052282;28;20389;-76
2022/08/29 13:49:33;;;;;;;5.25;3.15;;;;;;;;;;5052916;28;20048;-75
2022/08/29 13:52:38;;;;;;;5.72;3.60;;;;;;;;;;5051833;28;20033;-74
2022/08/29 13:55:42;;;;;;;9.85;3.40;;;;;;;;;;5050252;28;20041;-74
2022/08/29 13:58:48;;;;;;;10.10;2.85;;;;;;;;;;5049140;28;20374;-75
2022/08/29 14:01:53;;;;;;;6.25;2.53;;;;;;;;;;5048648;28;20045;-75
2022/08/29 14:04:57;;;;;;;9.57;2.55;;;;;;;;;;5049058;28;20617;-75
2022/08/29 14:08:03;;;;;;;8.20;2.65;;;;;;;;;;5049074;28;20049;-75
2022/08/29 14:11:07;;;;;;;6.53;2.00;;;;;;;;;;5050378;28;20029;-72
2022/08/29 14:14:11;;;;;;;4.93;1.90;;;;;;;;;;5049639;28;20492;-72
2022/08/29 14:17:17;;;;;;;4.65;1.77;;;;;;;;;;5048432;28;20037;-72
2022/08/29 14:20:21;;;;;;;7.18;2.75;;;;;;;;;;5050629;28;20621;-72
2022/08/29 14:23:26;;;;;;;5.90;2.10;;;;;;;;;;5050238;28;20041;-72
2022/08/29 14:26:30;;;;;;;15.40;5.47;;;;;;;;;;5050748;28;20193;-72
2022/08/29 14:29:35;;;;;;;7.60;4.10;;;;;;;;;;5051327;28;20049;-73
2022/08/29 14:32:40;;;;;;;10.88;4.45;;;;;;;;;;5051226;28;20037;-73
2022/08/29 14:35:44;;;;;;;6.55;4.00;;;;;;;;;;5051454;28;20041;-74
2022/08/29 14:38:48;;;;;;;16.25;5.35;;;;;;;;;;5051251;28;20041;-74
2022/08/29 14:41:53;;;;;;;5.35;3.88;;;;;;;;;;5050462;28;20429;-73
2022/08/29 14:44:59;;;;;;;6.82;3.97;;;;;;;;;;5049672;28;20128;-73
2022/08/29 14:48:05;;;;;;;12.65;5.57;;;;;;;;;;5050584;28;20048;-71
2022/08/29 14:51:10;;;;;;;6.13;4.00;;;;;;;;;;5050213;28;20036;-71
2022/08/29 14:54:16;;;;;;;11.05;4.78;;;;;;;;;;5050250;28;20485;-73
2022/08/29 14:57:21;;;;;;;8.50;5.32;;;;;;;;;;5050121;28;20041;-71
2022/08/29 15:00:26;;;;;;;7.22;4.32;;;;;;;;;;5050405;28;20489;-72
2022/08/29 15:03:31;;;;;;;8.07;4.20;;;;;;;;;;5050879;28;20040;-73
2022/08/29 15:06:35;;;;;;;10.63;4.45;;;;;;;;;;5038847;28;20053;-73
2022/08/29 15:09:42;;;;;;;8.30;4.72;;;;;;;;;;5051530;28;20053;-71
2022/08/29 15:12:46;;;;;;;11.38;5.10;;;;;;;;;;5050695;28;20033;-72
2022/08/29 15:15:51;;;;;;;8.98;4.07;;;;;;;;;;5050473;28;20029;-73
2022/08/29 15:18:55;;;;;;;9.57;3.60;;;;;;;;;;5049342;28;20045;-74
2022/08/29 15:22:00;;;;;;;7.63;4.40;;;;;;;;;;5050107;28;20037;-72
2022/08/29 15:25:05;;;;;;;8.30;4.40;;;;;;;;;;5050182;28;20491;-72
2022/08/29 15:28:11;;;;;;;8.25;4.05;;;;;;;;;;5050761;28;20049;-72
2022/08/29 15:31:15;;;;;;;9.70;3.72;;;;;;;;;;5050557;28;20354;-72
2022/08/29 15:34:20;;;;;;;7.28;3.70;;;;;;;;;;5051268;28;20037;-72
2022/08/29 15:37:24;;;;;;;8.65;3.90;;;;;;;;;;5053809;28;20040;-72
2022/08/29 15:40:28;;;;;;;5.65;3.90;;;;;;;;;;5053292;28;20045;-72
2022/08/29 15:43:33;;;;;;;9.32;4.22;;;;;;;;;;5055065;28;20045;-73
2022/08/29 15:46:37;;;;;;;5.22;3.80;;;;;;;;;;5053320;28;20048;-74
2022/08/29 15:49:41;;;;;;;6.53;3.60;;;;;;;;;;5054311;28;20037;-72
2022/08/29 15:52:45;;;;;;;9.57;4.43;;;;;;;;;;5054575;28;20049;-73
2022/08/29 15:55:50;;;;;;;6.05;3.92;;;;;;;;;;5054901;28;20045;-72
2022/08/29 15:58:54;;;;;;;6.32;3.60;;;;;;;;;;5053689;28;20037;-71
2022/08/29 16:01:59;;;;;;;8.43;4.03;;;;;;;;;;5053960;28;20484;-71
2022/08/29 16:05:03;;;;;;;7.30;3.50;;;;;;;;;;5053544;28;20033;-73
2022/08/29 16:08:09;;;;;;;6.75;4.00;;;;;;;;;;5053909;28;20041;-71
2022/08/29 16:11:14;;;;;;;7.53;3.78;;;;;;;;;;5054127;28;20033;-73
2022/08/29 16:14:19;;;;;;;7.50;4.38;;;;;;;;;;5053044;28;20041;-75
2022/08/29 16:17:29;;;;;;;11.20;5.03;;;;;;;;;;5422962;23;20054;-78
2022/08/29 16:20:35;;;;;;;15.50;5.03;;;;;;;;;;4995516;28;20045;-79
2022/08/29 16:23:39;;;;;;;12.55;5.43;;;;;;;;;;4994551;28;20046;-84
2022/08/29 16:26:44;;;;;;;11.57;5.18;;;;;;;;;;5004905;28;20053;-77
2022/08/29 16:29:48;;;;;;;9.55;5.15;;;;;;;;;;4995039;28;20530;-76
2022/08/29 16:32:54;;;;;;;11.90;5.97;;;;;;;;;;4995157;28;20347;-77
2022/08/29 16:35:59;;;;;;;9.40;5.35;;;;;;;;;;4995217;28;20064;-77
2022/08/29 16:39:05;;;;;;;9.40;5.82;;;;;;;;;;4995431;28;20038;-86
2022/08/29 16:42:10;;;;;;;10.60;5.13;;;;;;;;;;4997250;28;20042;-81
2022/08/29 16:45:15;;;;;;;10.43;5.82;;;;;;;;;;4994249;28;20050;-75
2022/08/29 16:48:19;;;;;;;8.43;4.80;;;;;;;;;;4993715;28;20065;-76
2022/08/29 16:51:25;;;;;;;13.45;5.40;;;;;;;;;;4994282;28;20443;-77
2022/08/29 16:54:29;;;;;;;7.13;4.88;;;;;;;;;;4993571;28;20137;-75
2022/08/29 16:57:34;;;;;;;10.23;4.95;;;;;;;;;;4993878;28;20038;-76
2022/08/29 17:00:39;;;;;;;9.30;5.13;;;;;;;;;;4993934;28;20044;-76
2022/08/29 17:03:47;;;;;;;9.07;6.43;;;;;;;;;;4993901;28;20039;-77
2022/08/29 17:06:51;;;;;;;11.65;5.95;;;;;;;;;;4992519;28;20383;-77
2022/08/29 17:19:09;;;;;;;12.98;6.43;;;;;;;;;;5004080;28;20042;-76
2022/08/29 17:22:14;;;;;;;8.45;5.75;;;;;;;;;;4993333;28;20042;-75
2022/08/29 17:25:19;;;;;;;12.85;5.35;;;;;;;;;;4993260;28;20043;-75
2022/08/29 17:28:24;;;;;;;8.50;5.32;;;;;;;;;;4993060;28;20043;-76
2022/08/29 17:31:29;;;;;;;8.80;5.68;;;;;;;;;;4992062;28;20038;-75
2022/08/29 17:34:33;;;;;;;12.20;5.97;;;;;;;;;;4993070;28;20042;-76
2022/08/29 17:37:38;;;;;;;10.02;5.43;;;;;;;;;;4991863;28;20404;-76
2022/08/29 17:40:42;;;;;;;7.10;5.43;;;;;;;;;;4993262;28;20144;-77
2022/08/29 17:43:48;;;;;;;12.13;5.32;;;;;;;;;;4992841;28;20034;-76
2022/08/29 17:46:53;;;;;;;6.88;4.72;;;;;;;;;;4992828;28;20038;-76
2022/08/29 17:49:57;;;;;;;10.82;4.70;;;;;;;;;;5003453;28;20367;-76
2022/08/29 17:53:02;;;;;;;11.80;5.50;;;;;;;;;;4992651;28;20111;-76
2022/08/29 17:56:11;;;;;;;9.85;5.82;;;;;;;;;;4992824;28;20049;-76
2022/08/29 17:59:17;;;;;;;9.18;5.18;;;;;;;;;;4992300;28;20042;-76
2022/08/29 18:02:21;;;;;;;9.27;5.35;;;;;;;;;;4992756;28;20046;-76
2022/08/29 18:05:25;;;;;;;9.85;5.78;;;;;;;;;;4992665;28;20142;-76
2022/08/29 18:08:30;;;;;;;14.15;5.30;;;;;;;;;;4991768;28;20393;-76
2022/08/29 18:11:42;;;;;;;7.28;4.88;;;;;;;;;;4992396;28;20038;-76
2022/08/29 18:14:46;;;;;;;7.18;5.13;;;;;;;;;;4992490;28;20050;-75
2022/08/29 18:17:50;;;;;;;8.63;4.78;;;;;;;;;;5002158;28;20395;-76
2022/08/29 18:20:55;;;;;;;5.32;4.55;;;;;;;;;;4991784;28;20045;-77
2022/08/29 18:24:00;;;;;;;7.25;4.93;;;;;;;;;;4992221;28;20031;-73
2022/08/29 18:27:04;;;;;;;7.38;4.75;;;;;;;;;;4991908;28;20191;-75
2022/08/29 18:30:09;;;;;;;9.63;5.38;;;;;;;;;;4992028;28;20038;-75
2022/08/29 18:33:13;;;;;;;12.52;5.15;;;;;;;;;;4992253;28;20046;-75
2022/08/29 18:36:18;;;;;;;17.45;5.68;;;;;;;;;;4991746;28;20050;-75
2022/08/29 18:39:23;;;;;;;9.63;5.95;;;;;;;;;;4992138;28;20045;-75